NCAR-RAP Real-Time Weather Data

Output produced by METARs form (26 May 2022  07:38 UTC)
found at http://weather.rap.ucar.edu/surface/
 
KCVG 260652Z 18007KT 10SM OVC100 22/18 A2996 RMK AO2 SLP135 T02170178 $
KCVG 260552Z 18011KT 10SM BKN110 22/18 A2997 RMK AO2 SLP138 60000 T02220178 10233 20217 53008 $
KCVG 260452Z 18009KT 10SM SCT050 23/18 A2997 RMK AO2 SLP137 T02280178 402830178 $
KCVG 260352Z 18009KT 10SM BKN100 OVC120 23/18 A2995 RMK AO2 SLP132 T02280183 $
KCVG 260252Z 19005KT 10SM OVC090 22/21 A2995 RMK AO2 SLP132 60000 T02220211 51005 $
KCVG 260152Z 19003KT 10SM FEW060 BKN075 BKN110 OVC140 22/22 A2995 RMK AO2 SLP131 T02170217 $
KCVG 260052Z 22003KT 10SM FEW045 BKN110 BKN160 OVC250 23/22 A2994 RMK AO2 LTG DSNT E RAE2358 SLP129 P0000 T02280217 $
KCVG 252352Z 17008KT 10SM -RA FEW041 FEW060 OVC110 23/22 A2993 RMK AO2 LTG DSNT W-N RAB2256E07B39 SLP127 P0004 60008 T02330217 10283 20217 55009 $
KCVG 252252Z 18004KT 10SM FEW032 BKN045 BKN070 OVC250 24/23 A2992 RMK AO2 RAB12E25 SLP123 VCSH SE-SW P0001 T02440228
KCVG 252152Z 15009KT 10SM SCT040 BKN055 BKN130 OVC250 26/23 A2993 RMK AO2 LTG DSNT N RAB27E43 SLP127 TCU DSNT N-NE MDT CU DSNT S P0003 T02560228
KCVG 252112Z 00000KT 10SM FEW040TCU FEW070 SCT120 OVC250 25/21 A2995 RMK AO2 LTG DSNT N TCU SE AND SW CB DSNT N T02500206
KCVG 252052Z VRB03KT 10SM VCTS FEW022 SCT036 SCT065 OVC250 25/21 A2996 RMK AO2 WSHFT 2019 RAB18E25 TSB30E52 SLP137 TS MOV N CB DSNT NW-N MDT CU NE-E P0000 60000 T02500211 58023
KCVG 252036Z 25011G21KT 10SM TS FEW020 BKN040CB BKN080 OVC250 23/20 A2998 RMK AO2 WSHFT 2019 RAB18E25 TSB30 VIS NW 2 FRQ LTGIC NW TS NW MOV N VCSH W-NW P0000 T02280200
KCVG 252030Z 21011KT 10SM TS FEW020 SCT038CB BKN085 BKN250 25/21 A2997 RMK AO2 RAB18E25 TSB30 FRQ LTGIC W TS W MOV N VCSH W-NW P0000 T02500211
KCVG 252013Z 13014KT 10SM VCTS SCT035 BKN060 BKN085 BKN250 27/21 A2996 RMK AO2 LTG DSNT S AND SW PRESFR CB DSNT SW VCSH SW T02670206
KCVG 251952Z 18011KT 10SM SCT035TCU BKN100 BKN250 28/22 A2998 RMK AO2 LTG DSNT SW AND W SLP143 TCU OHD CB DSNT SW-W T02780217
KCVG 251852Z 17014G19KT 10SM SCT032 BKN065 BKN095 BKN250 27/21 A3001 RMK AO2 SLP153 MDT CU NE-SE T02720211
KCVG 251752Z 16011KT 10SM SCT028 BKN038 27/22 A3003 RMK AO2 SLP159 60000 T02670217 10267 20189 58015
KCVG 251717Z 17013KT 10SM BKN030 BKN036 26/21 A3003 RMK AO2 T02610211
KCVG 251701Z 14012G19KT 9SM BKN028 26/21 A3005 RMK AO2 T02610206
KCVG 251652Z 17012G19KT 8SM FEW026 SCT032 BKN250 26/21 A3004 RMK AO2 SLP165 T02560206
KCVG 251552Z 14011KT 10SM FEW025 SCT140 BKN250 24/20 A3006 RMK AO2 SLP171 T02440200
KCVG 251452Z 13008KT 10SM FEW050 SCT100 BKN230 22/19 A3007 RMK AO2 RAB17E32 SLP176 P0000 60000 T02220194 50001
KCVG 251352Z 13010KT 10SM FEW049 BKN060 BKN120 21/18 A3008 RMK AO2 RAE1259 SLP180 BINOVC P0000 T02060183
KCVG 251252Z 14007KT 10SM -RA FEW060 SCT075 BKN110 OVC130 20/18 A3008 RMK AO2 RAB45 SLP178 P0000 T02000178
KCVG 251152Z 15008KT 10SM FEW065 OVC110 19/17 A3007 RMK AO2 SLP175 T01890172 10189 20178 53001
KCVG 251052Z 16008KT 10SM SCT038 BKN055 OVC110 18/17 A3007 RMK AO2 SLP176 VCSH NE T01830172
KCVG 250952Z 14011KT 10SM SCT060 BKN100 BKN250 18/17 A3006 RMK AO2 SLP173 T01830167
KCVG 250852Z 15006KT 10SM OVC090 18/17 A3007 RMK AO2 SLP173 T01830167 55009
KCVG 250752Z 13009KT 10SM OVC090 18/16 A3005 RMK AO2 SLP168 T01830161
KCVG 250652Z 12010KT 10SM OVC090 18/16 A3006 RMK AO2 SLP173 T01830161
KCVG 250552Z 13008KT 10SM BKN150 18/16 A3009 RMK AO2 SLP183 T01830161 10217 20178 58010
KCVG 250452Z 14008KT 10SM BKN150 18/16 A3012 RMK AO2 SLP190 T01830161 402390111
KCVG 250352Z 13011KT 10SM SCT110 18/16 A3012 RMK AO2 SLP195 T01830161
KCVG 250252Z 13011KT 10SM FEW030 19/17 A3012 RMK AO2 SLP194 T01890167 53009
KCVG 250152Z 13010KT 10SM FEW250 SCT300 19/17 A3011 RMK AO2 SLP189 T01940167
KCVG 250052Z 12008KT 10SM FEW032 FEW240 BKN300 21/17 A3009 RMK AO2 SLP183 T02060167
KCVG 242352Z 13012KT 10SM FEW036 FEW240 BKN300 22/16 A3010 RMK AO2 SLP186 T02170161 10239 20211 57002
KCVG 242252Z 10011KT 10SM FEW038 SCT230 BKN300 23/16 A3010 RMK AO2 SLP186 T02280161
KCVG 242152Z 09010KT 10SM FEW041 SCT250 BKN300 23/15 A3011 RMK AO2 SLP189 T02280150
KCVG 242052Z 09008KT 10SM FEW041 BKN300 23/15 A3010 RMK AO2 SLP187 T02330150 56014
KCVG 241952Z VRB05KT 10SM FEW040 FEW230 BKN300 23/14 A3012 RMK AO2 SLP193 T02280144
KCVG 241852Z 05010KT 10SM FEW039 SCT300 23/13 A3012 RMK AO2 SLP193 T02280133
KCVG 241752Z 11006KT 10SM FEW042 SCT300 22/12 A3015 RMK AO2 SLP202 T02170122 10217 20128 58009
KCVG 241652Z 05008KT 10SM FEW040 SCT300 21/13 A3016 RMK AO2 SLP208 T02060128
KCVG 241552Z 07011KT 10SM FEW036 FEW300 19/12 A3017 RMK AO2 SLP211 T01890117
KCVG 241452Z 04007KT 10SM FEW060 SCT300 18/12 A3017 RMK AO2 SLP212 T01780117 50000
KCVG 241352Z 07009KT 10SM FEW300 16/11 A3018 RMK AO2 SLP214 T01610106
KCVG 241252Z 05009KT 10SM SCT300 14/09 A3018 RMK AO2 SLP216 T01390094
KCVG 241152Z 03009KT 10SM FEW250 13/09 A3017 RMK AO2 SLP213 T01280094 10133 20111 53007
KCVG 241052Z 06010KT 10SM FEW250 12/09 A3015 RMK AO2 SLP204 T01170094
KCVG 240952Z 03007KT 10SM SCT035 12/10 A3015 RMK AO2 SLP206 T01170100
KCVG 240852Z 01007KT 10SM FEW036 12/11 A3015 RMK AO2 SLP205 T01170106 53007
KCVG 240752Z 03007KT 10SM CLR 12/11 A3013 RMK AO2 SLP198 T01220111